Time;durP1;ratioP1;P1;durP2;ratioP2;P2;SDS_P1;SDS_P2;PMS_P1;PMS_P2;Temp;Humidity;BMP_temperature;BMP_pressure;BME280_temperature;BME280_humidity;BME280_pressure;Samples;Min_cycle;Max_cycle;Signal;HPM_P1;HPM_P2
2022/03/13 00:00:49;;;;;;;7.20;6.50;;;9.20;25.50;;;11.58;25.17;101768.94;5033096;28;20222;-48
2022/03/13 00:03:20;;;;;;;6.83;5.47;;;9.30;25.60;;;11.58;25.18;101768.94;5031830;28;20600;-47
2022/03/13 00:05:51;;;;;;;7.43;6.27;;;9.20;25.60;;;11.56;24.99;101768.25;5019134;28;20198;-46
2022/03/13 00:08:27;;;;;;;8.90;5.63;;;9.20;25.60;;;11.54;24.88;101770.22;5029037;28;20219;-48
2022/03/13 00:10:59;;;;;;;8.70;6.30;;;9.20;25.60;;;11.56;25.22;101776.19;5033741;28;20198;-48
2022/03/13 00:13:30;;;;;;;8.93;6.90;;;9.10;25.60;;;11.53;24.90;101777.31;5019320;28;20191;-48
2022/03/13 00:16:01;;;;;;;9.10;6.23;;;9.10;25.70;;;11.53;25.13;101768.56;5017889;28;20210;-48
2022/03/13 00:18:29;;;;;;;8.00;5.67;;;9.10;25.80;;;11.53;25.26;101768.56;5028462;28;20206;-47
2022/03/13 00:20:59;;;;;;;6.30;5.70;;;9.10;25.90;;;11.51;25.34;101774.00;5038875;28;20190;-48
2022/03/13 00:23:28;;;;;;;8.30;6.37;;;9.00;25.90;;;11.50;25.02;101766.25;5041646;28;20200;-46
2022/03/13 00:25:55;;;;;;;7.57;6.50;;;9.00;26.00;;;11.47;25.28;101769.19;5040387;28;20198;-47
2022/03/13 00:28:22;;;;;;;8.17;6.37;;;9.00;26.00;;;11.43;25.41;101759.97;5030263;28;20208;-47
2022/03/13 00:30:50;;;;;;;9.07;6.77;;;9.00;26.10;;;11.38;25.46;101756.94;5019599;28;20612;-46
2022/03/13 00:33:17;;;;;;;7.37;6.00;;;8.90;26.10;;;11.34;25.65;101761.69;5021242;28;20625;-48
2022/03/13 00:35:44;;;;;;;7.87;5.97;;;8.90;26.10;;;11.35;25.30;101762.53;5018872;28;20187;-46
2022/03/13 00:38:12;;;;;;;8.30;5.77;;;8.90;26.10;;;11.32;25.70;101761.03;5025410;28;20232;-48
2022/03/13 00:40:41;;;;;;;8.30;5.50;;;8.80;26.10;;;11.34;25.45;101771.41;5037870;28;20536;-46
2022/03/13 00:43:08;;;;;;;6.57;5.77;;;8.80;26.10;;;11.33;25.65;101764.50;5038367;28;20193;-47
2022/03/13 00:45:36;;;;;;;6.63;5.93;;;8.80;26.10;;;11.37;25.15;101765.84;5038866;28;20218;-48
2022/03/13 00:48:04;;;;;;;8.23;6.57;;;8.80;26.20;;;11.36;25.67;101765.00;5033121;28;20233;-47
2022/03/13 00:50:31;;;;;;;10.17;5.80;;;8.80;26.20;;;11.35;25.81;101762.53;5020341;28;20210;-48
2022/03/13 00:52:59;;;;;;;7.10;6.13;;;8.80;26.20;;;11.34;25.44;101761.69;5020278;28;20274;-47
2022/03/13 00:55:26;;;;;;;8.10;5.77;;;8.80;26.70;;;11.33;25.12;101759.22;5018684;28;20493;-46
2022/03/13 00:57:55;;;;;;;9.30;6.50;;;8.70;26.20;;;11.31;25.31;101761.19;5021303;28;20222;-46
2022/03/13 01:00:22;;;;;;;9.70;6.83;;;8.70;26.20;;;11.28;25.84;101761.50;5038281;28;20222;-46
2022/03/13 01:02:50;;;;;;;9.03;6.80;;;8.70;26.10;;;11.24;25.32;101768.06;5038726;28;20193;-47
2022/03/13 01:05:23;;;;;;;7.43;5.60;;;8.70;26.20;;;11.24;25.84;101760.16;5039079;28;20199;-47
2022/03/13 01:07:51;;;;;;;7.70;6.87;;;8.70;26.20;;;11.24;25.18;101749.59;5033696;28;20276;-47
2022/03/13 01:10:18;;;;;;;7.40;6.40;;;8.70;26.30;;;11.25;25.13;101761.78;5017695;28;20190;-47
2022/03/13 01:12:48;;;;;;;6.97;5.93;;;8.60;26.30;;;11.24;25.66;101749.59;5018877;28;20183;-49
2022/03/13 01:15:17;;;;;;;9.77;6.53;;;8.60;26.20;;;11.19;25.14;101747.44;5017798;28;20254;-46
2022/03/13 01:17:45;;;;;;;7.17;5.83;;;8.60;26.40;;;11.15;25.92;101746.06;5019738;28;20595;-47
2022/03/13 01:20:17;;;;;;;7.80;7.00;;;8.60;26.40;;;11.12;25.95;101750.84;5037237;28;20700;-46
2022/03/13 01:22:45;;;;;;;8.80;6.67;;;8.50;26.30;;;11.07;25.54;101742.56;5037397;28;20598;-50
2022/03/13 01:25:13;;;;;;;7.43;6.40;;;8.50;26.40;;;11.02;25.74;101736.91;5038236;28;20684;-48
2022/03/13 01:27:41;;;;;;;9.17;5.93;;;8.50;26.50;;;10.96;25.88;101734.91;5037049;28;20227;-46
2022/03/13 01:30:13;;;;;;;9.37;6.87;;;8.40;26.50;;;10.97;26.19;101736.53;5038045;28;20244;-47
2022/03/13 01:32:48;;;;;;;7.60;6.80;;;8.40;26.60;;;10.97;25.78;101741.81;5037993;28;20215;-46
2022/03/13 01:35:20;;;;;;;9.07;6.27;;;8.40;26.70;;;10.94;26.06;101736.84;5039294;28;20189;-46
2022/03/13 01:37:49;;;;;;;6.33;5.53;;;8.40;26.80;;;10.89;25.98;101738.13;5037461;28;20580;-47
2022/03/13 01:40:21;;;;;;;6.83;6.10;;;8.30;26.90;;;10.85;25.66;101744.69;5037317;28;20310;-48
2022/03/13 01:42:49;;;;;;;6.43;5.70;;;8.30;26.80;;;10.84;26.33;101731.66;5035939;28;20226;-47
2022/03/13 01:45:19;;;;;;;7.27;5.93;;;8.30;26.90;;;10.83;26.17;101730.00;5036651;28;20556;-48
2022/03/13 01:47:48;;;;;;;6.97;5.87;;;8.20;26.80;;;10.83;26.16;101728.22;5038435;28;20222;-47
2022/03/13 01:50:16;;;;;;;7.63;6.03;;;8.20;26.90;;;10.83;25.98;101728.22;5017311;28;20191;-49
2022/03/13 01:52:48;;;;;;;10.57;6.53;;;8.20;27.00;;;10.79;25.72;101724.22;5017426;28;20199;-45
2022/03/13 01:55:16;;;;;;;7.13;6.43;;;8.20;26.90;;;10.79;25.62;101732.09;5016859;28;20201;-48
2022/03/13 01:57:45;;;;;;;8.90;6.53;;;8.10;26.80;;;10.74;26.28;101730.94;5017764;28;20219;-48
2022/03/13 02:00:16;;;;;;;11.50;6.47;;;8.10;26.80;;;10.73;26.21;101724.00;5035641;28;20226;-47
2022/03/13 02:02:47;;;;;;;7.77;6.07;;;8.10;26.80;;;10.71;25.93;101721.53;5035783;28;20656;-48
2022/03/13 02:05:30;;;;;;;7.83;6.17;;;8.10;26.80;;;10.67;25.90;101725.41;5035196;28;20190;-46
2022/03/13 02:08:00;;;;;;;6.43;5.83;;;8.10;27.00;;;10.67;26.23;101717.53;5031211;28;20215;-47
2022/03/13 02:10:27;;;;;;;7.10;6.40;;;8.10;27.10;;;10.66;26.35;101718.50;5015695;28;20188;-47
2022/03/13 02:12:56;;;;;;;7.43;6.23;;;8.00;27.10;;;10.64;26.30;101714.38;5015469;28;20199;-49
2022/03/13 02:15:32;;;;;;;11.10;7.60;;;8.00;27.00;;;10.58;26.06;101710.53;5015569;28;20266;-48
2022/03/13 02:18:01;;;;;;;7.20;6.50;;;8.00;27.20;;;10.57;26.54;101714.16;5015426;28;20306;-47
2022/03/13 02:20:38;;;;;;;7.33;6.63;;;8.00;27.30;;;10.54;26.72;101719.72;5015550;28;20215;-47
2022/03/13 02:23:17;;;;;;;8.00;7.13;;;7.90;27.70;;;10.51;26.19;101712.09;5015461;28;20221;-47
2022/03/13 02:25:48;;;;;;;8.20;6.57;;;7.90;27.30;;;10.52;26.22;101711.16;5015700;28;20556;-47
2022/03/13 02:28:19;;;;;;;6.97;6.27;;;7.90;27.40;;;10.49;26.47;101714.06;5019880;28;20226;-47
2022/03/13 02:30:48;;;;;;;8.33;6.77;;;7.90;27.50;;;10.46;26.70;101709.09;5036033;28;20179;-47
2022/03/13 02:33:20;;;;;;;7.53;6.07;;;7.80;27.50;;;10.43;27.06;101714.69;5035330;28;20229;-48
2022/03/13 02:35:54;;;;;;;8.77;7.00;;;7.80;27.50;;;10.37;26.83;101715.25;5034818;28;20197;-45
2022/03/13 02:38:24;;;;;;;9.10;6.57;;;7.80;27.60;;;10.33;26.96;101720.97;5028572;28;20240;-45
2022/03/13 02:40:53;;;;;;;10.47;6.70;;;7.70;27.70;;;10.29;26.97;101712.56;5015328;28;20674;-46
2022/03/13 02:43:21;;;;;;;11.43;6.40;;;7.70;27.80;;;10.24;27.00;101711.34;5016045;28;20561;-46
2022/03/13 02:45:52;;;;;;;7.73;6.90;;;7.70;27.90;;;10.23;27.00;101712.31;5016275;28;20221;-46
2022/03/13 02:48:20;;;;;;;9.53;6.83;;;7.60;27.90;;;10.18;26.68;101712.75;5020237;28;20219;-48
2022/03/13 02:50:48;;;;;;;10.23;7.33;;;7.60;28.00;;;10.13;27.50;101707.94;5034921;28;20179;-47
2022/03/13 02:53:17;;;;;;;8.93;7.27;;;7.60;28.10;;;10.15;27.40;101718.28;5035694;28;20552;-49
2022/03/13 02:55:46;;;;;;;10.03;6.70;;;7.50;28.10;;;10.14;27.44;101706.13;5035112;28;20200;-47
2022/03/13 02:58:16;;;;;;;9.67;6.80;;;7.50;28.10;;;10.10;27.00;101710.00;5034611;28;20217;-47
2022/03/13 03:00:46;;;;;;;7.97;6.43;;;7.50;28.10;;;10.01;27.64;101710.88;5035358;28;20214;-47
2022/03/13 03:03:16;;;;;;;7.67;6.83;;;7.50;28.20;;;9.94;27.73;101715.06;5034841;28;20222;-47
2022/03/13 03:05:44;;;;;;;8.27;6.87;;;7.40;28.20;;;9.87;27.50;101714.00;5034931;28;20194;-48
2022/03/13 03:08:12;;;;;;;8.20;6.13;;;7.40;28.80;;;9.83;27.64;101710.00;5030454;28;20207;-47
2022/03/13 03:10:40;;;;;;;8.33;7.10;;;7.30;28.30;;;9.73;27.84;101706.59;5015066;28;20245;-47
2022/03/13 03:13:09;;;;;;;9.13;6.80;;;7.30;28.40;;;9.68;27.99;101703.56;5015556;28;20213;-46
2022/03/13 03:15:37;;;;;;;8.03;6.77;;;7.20;28.50;;;9.66;28.03;101700.25;5015353;28;20195;-45
2022/03/13 03:18:07;;;;;;;9.83;6.90;;;7.20;28.60;;;9.64;27.84;101702.22;5017058;28;20222;-46
2022/03/13 03:20:35;;;;;;;9.70;7.30;;;7.20;28.70;;;9.66;27.87;101705.50;5034701;28;20552;-46
2022/03/13 03:23:03;;;;;;;9.30;6.53;;;7.20;28.70;;;9.66;28.06;101702.88;5034738;28;20192;-48
2022/03/13 03:25:30;;;;;;;8.83;6.67;;;7.10;28.60;;;9.65;27.87;101704.69;5034822;28;20201;-48
2022/03/13 03:27:59;;;;;;;8.53;6.87;;;7.10;28.60;;;9.68;28.02;101704.41;5031758;28;20235;-48
2022/03/13 03:30:31;;;;;;;8.30;6.87;;;7.10;28.60;;;9.68;27.54;101709.66;5014462;28;20190;-47
2022/03/13 03:33:02;;;;;;;7.60;6.70;;;7.10;28.70;;;9.68;27.84;101711.44;5015103;28;20266;-48
2022/03/13 03:35:30;;;;;;;9.97;7.07;;;7.10;28.70;;;9.68;27.84;101699.13;5016914;28;20202;-47
2022/03/13 03:37:58;;;;;;;8.13;6.67;;;7.10;28.60;;;9.66;27.75;101702.88;5016105;28;20216;-47
2022/03/13 03:40:29;;;;;;;8.93;6.93;;;7.10;28.70;;;9.63;28.00;101705.81;5033385;28;20674;-48
2022/03/13 03:42:58;;;;;;;10.33;7.03;;;7.10;28.80;;;9.58;27.75;101702.78;5034589;28;20191;-47
2022/03/13 03:45:28;;;;;;;9.20;6.43;;;7.00;28.60;;;9.54;28.00;101703.06;5033444;28;20207;-46
2022/03/13 03:47:55;;;;;;;10.10;7.77;;;7.00;28.80;;;9.51;28.27;101700.72;5032744;28;20214;-49
2022/03/13 03:50:23;;;;;;;8.07;6.90;;;7.00;28.90;;;9.53;28.37;101696.16;5014856;28;20199;-45
2022/03/13 03:52:55;;;;;;;11.70;7.43;;;7.00;29.00;;;9.57;27.73;101693.25;5015422;28;20198;-46
2022/03/13 03:55:23;;;;;;;9.77;6.30;;;7.00;29.10;;;9.59;27.75;101699.19;5019463;28;20196;-46
2022/03/13 03:57:51;;;;;;;8.13;6.90;;;6.90;28.90;;;9.60;28.11;101698.22;5013611;28;20219;-49
2022/03/13 04:00:23;;;;;;;9.67;7.10;;;6.90;28.90;;;9.53;28.06;101690.91;5014047;28;20585;-46
2022/03/13 04:02:53;;;;;;;14.77;6.63;;;6.90;29.00;;;9.51;27.89;101700.72;5013907;28;20187;-47
2022/03/13 04:05:20;;;;;;;7.40;6.10;;;6.90;28.90;;;9.50;28.29;101701.72;5013776;28;20206;-46
2022/03/13 04:07:48;;;;;;;8.93;7.53;;;6.90;29.00;;;9.45;28.17;101713.63;5013796;28;20215;-47
2022/03/13 04:10:15;;;;;;;8.07;6.50;;;6.90;29.00;;;9.41;28.12;101702.56;5014468;28;20200;-47
2022/03/13 04:12:42;;;;;;;8.30;7.10;;;6.80;29.00;;;9.41;28.35;101705.19;5014471;28;20657;-48
2022/03/13 04:15:10;;;;;;;8.03;7.03;;;6.80;29.10;;;9.34;28.48;101701.47;5013747;28;20203;-47
2022/03/13 04:17:37;;;;;;;8.53;7.20;;;6.80;29.10;;;9.32;28.32;101702.56;5013777;28;20606;-47
2022/03/13 04:20:07;;;;;;;8.73;6.97;;;6.80;29.20;;;9.32;28.29;101702.56;5031084;28;20386;-46
2022/03/13 04:22:35;;;;;;;10.17;7.67;;;6.70;29.30;;;9.28;28.57;101696.78;5033781;28;20600;-47
2022/03/13 04:25:02;;;;;;;8.03;6.87;;;6.70;29.40;;;9.26;28.63;101698.75;5033646;28;20210;-48
2022/03/13 04:27:32;;;;;;;7.70;6.60;;;6.70;29.60;;;9.25;28.88;101698.88;5033542;28;20218;-47
2022/03/13 04:30:00;;;;;;;8.87;7.33;;;6.70;29.60;;;9.22;28.72;101697.34;5017263;28;20548;-46
2022/03/13 04:32:27;;;;;;;8.40;6.10;;;6.70;29.70;;;9.21;28.70;101700.13;5013965;28;20682;-46
2022/03/13 04:34:54;;;;;;;10.20;7.30;;;6.70;29.60;;;9.21;28.87;101700.97;5014165;28;20566;-49
2022/03/13 04:37:23;;;;;;;8.80;7.33;;;6.60;29.80;;;9.20;28.89;101704.53;5013108;28;20211;-46
2022/03/13 04:39:51;;;;;;;8.03;6.60;;;6.60;29.80;;;9.19;29.14;101700.28;5028262;28;20246;-46
2022/03/13 04:42:18;;;;;;;9.03;6.70;;;6.60;29.90;;;9.20;28.71;101701.13;5033160;28;20270;-48
2022/03/13 04:44:46;;;;;;;8.50;6.60;;;6.60;29.90;;;9.22;28.82;101702.59;5032886;28;20186;-47
2022/03/13 04:47:13;;;;;;;9.80;6.33;;;6.60;29.90;;;9.22;28.59;101707.84;5033130;28;20220;-47
2022/03/13 04:49:41;;;;;;;9.07;7.13;;;6.60;29.80;;;9.22;28.82;101701.81;5020243;28;20193;-48
2022/03/13 04:52:14;;;;;;;9.80;7.13;;;6.60;29.80;;;9.25;28.66;101701.50;5016299;28;20208;-47
2022/03/13 04:54:42;;;;;;;11.13;6.90;;;6.60;29.70;;;9.29;28.55;101703.72;5017892;28;20278;-48
2022/03/13 04:57:09;;;;;;;8.50;6.93;;;6.60;29.70;;;9.31;28.80;101701.78;5017582;28;20302;-48
2022/03/13 04:59:37;;;;;;;7.13;6.10;;;6.60;29.80;;;9.33;28.34;101710.34;5029537;28;20258;-45
2022/03/13 05:02:04;;;;;;;8.60;6.43;;;6.60;29.60;;;9.29;28.57;101698.47;5036187;28;20203;-48
2022/03/13 05:04:32;;;;;;;9.57;7.10;;;6.60;29.60;;;9.25;28.45;101704.94;5037285;28;20195;-47
2022/03/13 05:06:59;;;;;;;9.93;7.30;;;6.60;29.50;;;9.17;28.61;101704.84;5036656;28;20635;-47
2022/03/13 05:09:27;;;;;;;9.60;6.53;;;6.50;29.40;;;9.11;28.77;101705.41;5026626;28;20614;-47
2022/03/13 05:11:55;;;;;;;8.37;6.83;;;6.50;29.40;;;9.06;28.54;101706.78;5017508;28;20201;-47
2022/03/13 05:14:23;;;;;;;8.10;6.87;;;6.50;29.50;;;8.98;28.79;101699.63;5017115;28;20196;-46
2022/03/13 05:16:50;;;;;;;8.77;6.97;;;6.40;29.50;;;8.94;28.58;101698.22;5016896;28;20232;-47
2022/03/13 05:19:17;;;;;;;8.87;7.00;;;6.40;29.50;;;8.91;28.69;101701.16;5026586;28;20191;-48
2022/03/13 05:21:45;;;;;;;8.77;6.93;;;6.40;29.60;;;8.85;28.47;101699.91;5036553;28;20651;-49
2022/03/13 05:24:12;;;;;;;9.80;7.07;;;6.30;29.50;;;8.82;28.65;101699.34;5037093;28;20242;-48
2022/03/13 05:26:39;;;;;;;11.20;7.43;;;6.30;29.50;;;8.79;28.81;101704.91;5036884;28;20223;-47
2022/03/13 05:29:08;;;;;;;8.40;7.00;;;6.30;29.50;;;8.80;28.60;101709.16;5029497;28;20201;-50
2022/03/13 05:31:36;;;;;;;8.90;6.90;;;6.30;29.50;;;8.82;28.91;101709.84;5016674;28;20256;-47
2022/03/13 05:34:03;;;;;;;10.20;7.43;;;6.20;29.60;;;8.85;28.77;101709.56;5017530;28;20226;-47
2022/03/13 05:36:31;;;;;;;8.93;6.43;;;6.20;29.60;;;8.88;28.68;101714.56;5016233;28;20234;-46
2022/03/13 05:38:58;;;;;;;11.77;7.00;;;6.20;29.60;;;8.91;29.09;101711.66;5022677;28;20191;-46
2022/03/13 05:41:26;;;;;;;10.47;6.70;;;6.20;29.60;;;8.92;28.55;101721.19;5035439;28;20222;-49
2022/03/13 05:43:54;;;;;;;10.63;7.33;;;6.20;29.50;;;8.92;28.41;101709.84;5036096;28;20267;-46
2022/03/13 05:46:22;;;;;;;8.53;7.10;;;6.20;29.40;;;8.93;28.54;101707.09;5036012;28;20574;-47
2022/03/13 05:48:50;;;;;;;8.17;6.53;;;6.20;29.40;;;8.92;28.49;101710.69;5030777;28;20219;-50
2022/03/13 05:51:17;;;;;;;8.73;7.13;;;6.20;30.00;;;8.93;28.42;101722.00;5015810;28;20278;-47
2022/03/13 05:53:45;;;;;;;8.53;7.17;;;6.20;29.40;;;8.89;28.15;101718.03;5016156;28;20198;-46
2022/03/13 05:56:12;;;;;;;8.87;6.60;;;6.20;29.30;;;8.86;28.46;101711.25;5014974;28;20196;-50
2022/03/13 05:58:39;;;;;;;9.90;7.27;;;6.20;29.30;;;8.84;28.42;101715.81;5019087;28;20531;-45
2022/03/13 06:01:09;;;;;;;8.87;7.20;;;6.20;29.30;;;8.83;28.56;101711.53;5036561;28;20219;-47
2022/03/13 06:03:38;;;;;;;10.03;7.37;;;6.20;29.30;;;8.79;28.39;101710.16;5034664;28;20304;-49
2022/03/13 06:06:06;;;;;;;10.30;7.43;;;6.10;29.30;;;8.78;28.52;101718.97;5035148;28;20241;-48
2022/03/13 06:08:34;;;;;;;10.63;6.77;;;6.10;29.20;;;8.81;28.54;101713.47;5032751;28;20227;-48
2022/03/13 06:11:01;;;;;;;9.17;7.47;;;6.10;29.30;;;8.84;28.35;101707.94;5015133;28;20184;-51
2022/03/13 06:13:29;;;;;;;8.83;7.77;;;6.10;29.30;;;8.87;28.28;101718.13;5015312;28;20204;-50
2022/03/13 06:15:58;;;;;;;8.90;6.70;;;6.20;29.50;;;8.92;28.30;101715.94;5015046;28;20203;-48
2022/03/13 06:18:27;;;;;;;7.87;7.07;;;6.20;29.30;;;8.95;28.15;101714.81;5015722;28;20581;-47
2022/03/13 06:20:56;;;;;;;8.13;6.63;;;6.20;29.30;;;9.02;28.15;101716.75;5035219;28;20266;-48
2022/03/13 06:23:23;;;;;;;8.73;6.73;;;6.20;29.30;;;9.05;28.01;101721.72;5034991;28;20188;-48
2022/03/13 06:25:51;;;;;;;8.37;6.73;;;6.20;29.10;;;9.06;28.08;101718.13;5035103;28;20198;-46
2022/03/13 06:28:21;;;;;;;11.10;8.00;;;6.30;29.00;;;9.07;27.75;101724.22;5034534;28;20660;-47
2022/03/13 06:30:49;;;;;;;8.90;7.17;;;6.30;29.00;;;9.08;28.10;101721.44;5014891;28;20649;-49
2022/03/13 06:33:16;;;;;;;8.07;6.50;;;6.30;28.90;;;9.11;27.95;101729.03;5015056;28;20212;-50
2022/03/13 06:35:43;;;;;;;9.20;7.37;;;6.40;29.00;;;9.16;27.76;101728.59;5016730;28;20639;-47
2022/03/13 06:38:12;;;;;;;8.53;6.80;;;6.40;28.80;;;9.20;27.90;101730.81;5016055;28;20219;-50
2022/03/13 06:40:39;;;;;;;8.67;7.33;;;6.40;28.70;;;9.19;27.61;101728.34;5016305;28;20301;-48
2022/03/13 06:43:07;;;;;;;9.37;7.40;;;6.40;28.60;;;9.19;27.70;101729.16;5015410;28;20201;-47
2022/03/13 06:45:34;;;;;;;7.93;6.57;;;6.40;29.10;;;9.21;27.57;101732.47;5018229;28;20222;-46
2022/03/13 06:48:02;;;;;;;9.33;7.23;;;6.50;28.60;;;9.22;27.60;101726.25;5017310;28;20720;-46
2022/03/13 06:50:29;;;;;;;10.13;7.13;;;6.50;28.60;;;9.23;27.42;101730.53;5019583;28;20226;-47
2022/03/13 06:52:57;;;;;;;9.73;6.87;;;6.50;28.50;;;9.20;27.23;101730.00;5019063;28;20200;-46
2022/03/13 06:55:25;;;;;;;10.80;7.07;;;6.50;28.20;;;9.23;27.11;101733.16;5017983;28;20187;-47
2022/03/13 06:57:53;;;;;;;9.80;6.90;;;6.50;28.20;;;9.30;27.12;101730.78;5016281;28;20219;-48
2022/03/13 07:00:20;;;;;;;10.00;7.70;;;6.60;28.30;;;9.40;26.99;101724.56;5030358;28;20256;-49
2022/03/13 07:02:49;;;;;;;9.43;6.97;;;6.70;28.20;;;9.51;27.26;101723.53;5034394;28;20265;-49
2022/03/13 07:05:19;;;;;;;8.80;7.40;;;6.70;28.10;;;9.71;26.75;101717.25;5034590;28;20552;-48
2022/03/13 07:07:47;;;;;;;9.03;6.87;;;6.90;28.10;;;10.02;26.72;101720.44;5034221;28;20207;-45
2022/03/13 07:10:14;;;;;;;11.67;7.10;;;7.10;28.20;;;10.39;26.33;101715.94;5019964;28;20210;-47
2022/03/13 07:12:44;;;;;;;9.10;7.13;;;7.40;28.00;;;10.79;25.86;101713.69;5015518;28;20546;-48
2022/03/13 07:15:14;;;;;;;9.87;7.80;;;7.70;27.60;;;11.21;25.18;101718.28;5014835;28;20199;-47
2022/03/13 07:17:44;;;;;;;9.77;7.37;;;8.10;27.30;;;11.62;25.19;101711.44;5014572;28;20302;-48
2022/03/13 07:20:12;;;;;;;10.00;7.30;;;8.50;26.60;;;11.99;24.27;101715.44;5028975;28;20196;-47
2022/03/13 07:22:40;;;;;;;10.47;7.50;;;8.90;25.90;;;12.36;24.42;101711.59;5033951;28;20190;-48
2022/03/13 07:25:09;;;;;;;9.80;7.50;;;9.30;25.50;;;12.80;23.55;101718.25;5033677;28;20191;-47
2022/03/13 07:27:37;;;;;;;8.33;6.90;;;9.60;24.90;;;13.08;22.71;101719.59;5033254;28;20216;-48
2022/03/13 07:30:12;;;;;;;10.53;7.57;;;10.00;23.60;;;13.23;23.06;101717.94;5021238;28;20195;-46
2022/03/13 07:32:44;;;;;;;7.73;6.90;;;10.30;23.50;;;13.28;22.31;101715.59;5014978;28;20198;-48
2022/03/13 07:35:12;;;;;;;8.87;7.20;;;10.50;22.70;;;13.26;22.15;101720.25;5014137;28;20191;-48
2022/03/13 07:37:39;;;;;;;10.57;7.20;;;10.60;22.50;;;13.15;22.04;101717.91;5013634;28;20213;-48
2022/03/13 07:40:09;;;;;;;7.73;6.90;;;10.60;22.20;;;13.01;22.44;101723.00;5026969;28;20317;-49
2022/03/13 07:42:37;;;;;;;8.80;7.83;;;10.60;22.10;;;12.93;22.50;101721.22;5033695;28;20233;-48
2022/03/13 07:45:07;;;;;;;9.37;7.53;;;10.50;22.10;;;12.96;22.67;101726.16;5033913;28;20190;-47
2022/03/13 07:47:34;;;;;;;12.70;7.27;;;10.50;22.40;;;13.06;22.53;101718.94;5033658;28;20218;-48
2022/03/13 07:50:03;;;;;;;10.03;8.13;;;10.50;22.40;;;13.03;22.68;101721.84;5021056;28;20195;-48
2022/03/13 07:52:30;;;;;;;9.77;7.80;;;10.50;22.30;;;13.06;22.72;101718.94;5014487;28;20557;-48
2022/03/13 07:54:59;;;;;;;9.07;7.43;;;10.50;22.40;;;13.18;22.83;101714.13;5013960;28;20195;-47
2022/03/13 07:57:28;;;;;;;8.07;6.73;;;10.60;22.50;;;13.47;22.43;101720.53;5013731;28;20580;-50
2022/03/13 07:59:56;;;;;;;9.60;7.83;;;10.70;22.70;;;13.70;22.28;101714.50;5025157;28;20201;-49
2022/03/13 08:02:24;;;;;;;7.63;6.93;;;10.90;22.50;;;14.03;22.14;101716.00;5033659;28;20218;-49
2022/03/13 08:04:52;;;;;;;8.43;6.53;;;11.10;22.70;;;14.32;21.88;101710.91;5033493;28;20669;-47
2022/03/13 08:07:19;;;;;;;8.80;6.93;;;11.30;22.40;;;14.70;21.34;101714.47;5033698;28;20214;-49
2022/03/13 08:09:47;;;;;;;8.80;7.87;;;11.50;22.10;;;14.91;20.98;101723.41;5034940;28;20258;-48
2022/03/13 08:12:14;;;;;;;8.37;7.43;;;11.70;21.80;;;15.21;21.02;101723.50;5035124;28;20301;-49
2022/03/13 08:14:41;;;;;;;8.87;7.80;;;12.00;21.90;;;15.32;20.61;101725.69;5035288;28;20232;-50
2022/03/13 08:17:08;;;;;;;8.83;7.93;;;12.10;21.50;;;15.48;20.84;101721.06;5033212;28;20222;-48
2022/03/13 08:19:37;;;;;;;11.63;7.30;;;12.30;21.50;;;15.66;20.41;101726.03;5025637;28;20218;-50
2022/03/13 08:22:05;;;;;;;9.33;7.33;;;12.50;21.30;;;15.70;20.28;101714.03;5014583;28;20563;-49
2022/03/13 08:24:32;;;;;;;7.90;6.77;;;12.60;21.00;;;16.08;20.70;101715.56;5013462;28;20660;-50
2022/03/13 08:27:00;;;;;;;9.47;7.33;;;12.80;21.40;;;16.51;20.03;101708.50;5014839;28;20230;-49
2022/03/13 08:29:30;;;;;;;8.63;7.27;;;13.00;21.10;;;16.77;19.64;101716.72;5024359;28;20252;-49
2022/03/13 08:31:58;;;;;;;8.33;7.50;;;13.30;20.80;;;16.93;19.23;101718.28;5037671;28;20212;-48
2022/03/13 08:34:30;;;;;;;9.30;7.07;;;13.50;20.30;;;17.23;19.20;101725.09;5037777;28;20282;-47
2022/03/13 08:37:04;;;;;;;8.80;7.87;;;13.80;20.40;;;17.62;19.03;101729.03;5037104;28;20687;-49
2022/03/13 08:39:32;;;;;;;8.23;7.43;;;14.00;20.20;;;17.87;18.58;101724.88;5030445;28;20254;-49
2022/03/13 08:41:59;;;;;;;8.23;6.97;;;14.30;19.80;;;18.20;18.35;101739.16;5017510;28;20622;-50
2022/03/13 08:44:26;;;;;;;10.53;8.07;;;14.50;19.50;;;18.51;18.01;101734.16;5017534;28;20195;-50
2022/03/13 08:46:54;;;;;;;8.93;7.33;;;14.80;19.40;;;18.93;17.67;101730.31;5016924;28;20579;-50
2022/03/13 08:49:21;;;;;;;9.13;7.90;;;15.10;19.20;;;18.92;17.28;101728.69;5021982;28;20278;-49
2022/03/13 08:51:48;;;;;;;8.03;7.23;;;15.30;18.40;;;18.98;17.36;101722.50;5037367;28;20186;-48
2022/03/13 08:54:17;;;;;;;8.23;7.37;;;15.50;18.40;;;19.55;17.35;101725.38;5037058;28;20201;-49
2022/03/13 08:56:46;;;;;;;7.87;7.13;;;15.70;19.00;;;20.14;17.24;101719.81;5037113;28;20660;-51
2022/03/13 08:59:15;;;;;;;8.73;7.93;;;16.10;18.80;;;20.87;16.67;101712.19;5033281;28;20191;-49
2022/03/13 09:01:42;;;;;;;10.43;7.60;;;16.50;18.70;;;21.23;15.29;101731.03;5016923;28;20289;-50
2022/03/13 09:04:10;;;;;;;8.23;7.17;;;16.80;17.50;;;21.30;15.93;101725.63;5016403;28;20195;-49
2022/03/13 09:06:39;;;;;;;8.83;7.93;;;17.10;17.50;;;21.48;15.02;101713.06;5016772;28;20246;-50
2022/03/13 09:09:09;;;;;;;9.80;7.43;;;17.40;17.30;;;21.75;15.32;101718.16;5020249;28;20560;-49
2022/03/13 09:11:38;;;;;;;7.53;6.80;;;17.60;16.70;;;22.10;15.19;101716.50;5036780;28;20187;-49
2022/03/13 09:14:06;;;;;;;8.53;7.73;;;17.90;17.00;;;22.27;14.67;101711.31;5035799;28;20221;-48
2022/03/13 09:16:38;;;;;;;8.40;7.60;;;18.10;16.30;;;22.14;14.27;101701.59;5037241;28;20692;-51
2022/03/13 09:19:05;;;;;;;9.27;6.67;;;18.20;16.10;;;22.44;14.79;101712.31;5035651;28;20195;-50
2022/03/13 09:21:34;;;;;;;8.80;6.83;;;18.50;16.70;;;22.97;14.44;101713.16;5017766;28;20238;-50
2022/03/13 09:24:01;;;;;;;10.30;7.57;;;18.70;16.60;;;23.52;14.27;101710.97;5017022;28;20192;-48
2022/03/13 09:26:29;;;;;;;8.27;7.27;;;19.00;16.70;;;23.92;13.65;101694.84;5019089;28;20310;-52
2022/03/13 09:28:57;;;;;;;7.83;7.03;;;19.30;16.00;;;24.22;13.52;101690.88;5019792;28;20198;-51
2022/03/13 09:31:25;;;;;;;9.03;7.43;;;19.60;16.20;;;24.66;13.60;101691.94;5036199;28;20193;-49
2022/03/13 09:33:52;;;;;;;7.93;7.23;;;20.00;16.00;;;24.95;13.55;101687.31;5036302;28;20198;-50
2022/03/13 09:36:19;;;;;;;8.03;7.30;;;20.20;15.50;;;25.12;13.29;101676.53;5035883;28;20199;-49
2022/03/13 09:38:47;;;;;;;7.53;6.90;;;20.50;15.10;;;25.32;12.73;101680.31;5033236;28;20517;-51
2022/03/13 09:41:15;;;;;;;8.83;7.93;;;20.70;15.40;;;25.63;12.48;101686.13;5016326;28;20249;-49
2022/03/13 09:43:43;;;;;;;8.73;7.83;;;21.00;15.00;;;25.74;12.21;101683.34;5016302;28;20199;-50
2022/03/13 09:46:12;;;;;;;8.33;7.60;;;21.20;14.90;;;25.91;12.22;101684.03;5015944;28;20187;-53
2022/03/13 09:48:40;;;;;;;8.00;7.17;;;21.40;14.70;;;26.23;12.90;101680.63;5016501;28;20510;-50
2022/03/13 09:51:09;;;;;;;8.37;7.57;;;21.60;15.10;;;26.60;12.55;101692.34;5036332;28;20669;-51
2022/03/13 09:53:38;;;;;;;7.57;6.87;;;21.80;14.60;;;26.79;11.76;101689.00;5036392;28;20199;-50
2022/03/13 09:56:05;;;;;;;7.80;7.10;;;22.00;14.10;;;26.61;11.67;101683.16;5037656;28;20262;-50
2022/03/13 09:58:34;;;;;;;8.20;7.40;;;22.10;13.80;;;26.69;12.23;101683.50;5035356;28;20191;-50
2022/03/13 10:01:01;;;;;;;8.00;7.20;;;22.20;14.30;;;27.09;11.95;101691.13;5016741;28;20697;-49
2022/03/13 10:03:30;;;;;;;8.03;7.23;;;22.40;14.30;;;27.32;11.45;101676.38;5016172;28;20214;-50
2022/03/13 10:05:59;;;;;;;8.73;7.90;;;22.60;14.20;;;27.60;11.48;101676.00;5016019;28;20199;-50
2022/03/13 10:08:29;;;;;;;9.27;8.13;;;22.80;14.30;;;27.82;11.18;101673.09;5016191;28;20215;-50
2022/03/13 10:11:31;;;;;;;7.73;6.70;;;23.00;13.70;;;28.31;11.28;101655.38;5014000;28;20286;-51
2022/03/13 10:14:07;;;;;;;8.37;7.67;;;23.30;14.10;;;28.74;11.05;101656.75;5015273;28;20191;-51
2022/03/13 10:16:38;;;;;;;8.47;7.67;;;23.60;13.60;;;28.98;10.58;101655.06;5015300;28;20723;-50
2022/03/13 10:19:18;;;;;;;8.70;8.00;;;23.80;13.60;;;29.02;10.33;101661.59;5021095;28;20235;-50
2022/03/13 10:22:05;;;;;;;8.77;7.87;;;23.90;13.10;;;29.02;10.59;101664.31;5035049;28;20236;-49
2022/03/13 10:24:41;;;;;;;8.30;7.60;;;24.10;13.30;;;28.93;10.55;101646.94;5034705;28;20216;-52